Flight Track Log - Related Links

Times and Time Zones

All times are in EDT time to prevent confusion due to time zone crossing. See the AFR688 flight status page for this flight to view local times or setup timezone preferences in your user account.

Time Position Orientation Groundspeed Altitude Reporting Facility
EDT Latitude Longitude Course Direction KTS MPH feet Rate Location/Type
Fri 08:10:00 AM 49.0557 2.3700 303° West  Level FlightAware Approximate
Fri 08:11:00 AM 49.1181 2.2125 297° West  Level FlightAware Approximate
Fri 08:11:46 AM 48.9963 2.5652 297° West 170 196 300  Level FlightAware ADS-B
Fri 08:11:56 AM 48.9957 2.5538 265° West 169 194 700 2,750 Climbing FlightAware ADS-B
Fri 08:12:10 AM 48.9949 2.5372 266° West 172 198 1,400 2,897 Climbing FlightAware ADS-B
Fri 08:12:25 AM 48.9939 2.5193 265° West 167 192 2,100 2,455 Climbing FlightAware ADS-B
Fri 08:12:32 AM 48.9934 2.5109 265° West 169 194 2,300 1,909 Climbing FlightAware ADS-B
Fri 08:12:47 AM 48.9923 2.4928 265° West 173 199 2,800 2,087 Climbing FlightAware ADS-B
Fri 08:12:55 AM 48.9917 2.4825 265° West 171 197 3,100 2,000 Climbing FlightAware ADS-B
Fri 08:13:05 AM 48.9910 2.4708 265° West 175 201 3,400 1,333 Climbing FlightAware ADS-B
Fri 08:13:13 AM 48.9904 2.4604 265° West 184 212 3,500 706 Climbing FlightAware ADS-B
Fri 08:13:22 AM 48.9899 2.4488 266° West 196 226 3,600 818 Climbing FlightAware ADS-B
Fri 08:13:35 AM 48.9890 2.4295 266° West 218 251 3,800 1,071 Climbing FlightAware ADS-B
Fri 08:13:50 AM 48.9878 2.4070 265° West 231 266 4,100 1,615 Climbing FlightAware ADS-B
Fri 08:14:01 AM 48.9867 2.3878 265° West 238 274 4,500 2,250 Climbing FlightAware ADS-B
Fri 08:14:06 AM 48.9862 2.3797 265° West 242 278 4,700 1,714 Climbing FlightAware ADS-B
Fri 08:14:22 AM 48.9849 2.3519 266° West 256 295 5,100 2,222 Climbing FlightAware ADS-B
Fri 08:14:33 AM 48.9839 2.3315 266° West 256 295 5,700 3,000 Climbing FlightAware ADS-B
Fri 08:14:48 AM 48.9825 2.3046 265° West 252 290 6,400 2,690 Climbing FlightAware ADS-B
Fri 08:15:02 AM 48.9813 2.2813 266° West 255 293 7,000 2,526 Climbing FlightAware ADS-B
Fri 08:15:07 AM 48.9811 2.2711 268° West 258 297 7,200 2,182 Climbing FlightAware ADS-B
Fri 08:15:13 AM 48.9812 2.2602 271° West 260 299 7,400 2,118 Climbing FlightAware ADS-B
Fri 08:15:24 AM 48.9815 2.2405 271° West 262 302 7,800 2,400 Climbing FlightAware ADS-B
Fri 08:15:43 AM 48.9829 2.2050 273° West 264 304 8,600 2,471 Climbing FlightAware ADS-B
Fri 08:15:58 AM 48.9841 2.1772 274° West 265 305 9,200 2,222 Climbing FlightAware ADS-B
Fri 08:16:10 AM 48.9854 2.1561 275° West 267 307 9,600 2,222 Climbing FlightAware ADS-B
Fri 08:16:25 AM 48.9870 2.1267 275° West 270 311 10,200 1,304 Climbing FlightAware ADS-B
Fri 08:16:56 AM 48.9904 2.0649 275° West 299 344 10,600 806 Climbing FlightAware ADS-B
Fri 08:17:32 AM 48.9940 1.9920 274° West 326 375 11,100 842 Climbing FlightAware ADS-B
Fri 08:17:53 AM 48.9971 1.9368 275° West 318 366 11,400 160 Climbing FlightAware ADS-B
Fri 08:18:47 AM 49.0029 1.8005 275° West 1 1 11,300 1,541 Descending FlightAware UK
Fri 08:19:07 AM 49.0060 1.7620 275° West 370 426 13,300 1,925 Climbing FlightAware ADS-B
Fri 08:19:40 AM 49.0116 1.6610 275° West 388 447 13,000 1,867 Descending FlightAware UK
Fri 08:19:52 AM 49.0120 1.6470 275° West 376 433 14,700 1,857 Climbing FlightAware ADS-B
Fri 08:20:22 AM 49.0164 1.5493 275° West 390 449 14,300 1,950 Descending FlightAware UK
Fri 08:20:32 AM 49.0170 1.5400 275° West 382 440 16,000 1,750 Climbing FlightAware ADS-B
Fri 08:21:10 AM 49.0228 1.4199 275° West 402 463 15,700 1,600 Descending FlightAware UK
Fri 08:21:17 AM 49.0220 1.4250 275° West 387 445 17,200 1,750 Climbing FlightAware ADS-B
Fri 08:21:34 AM 49.0260 1.3535 275° West 404 465 16,400 1,800 Descending FlightAware UK
Fri 08:21:57 AM 49.0280 1.3020 275° West 392 451 18,400 1,700 Climbing FlightAware ADS-B
Fri 08:22:34 AM 49.0318 1.1858 275° West 414 476 18,100 493 Descending FlightAware UK
Fri 08:22:52 AM 49.0330 1.1530 275° West 19,900 1,500 Climbing FlightAware ADS-B
Fri 08:23:10 AM 49.0344 1.0842 275° West 420 483 19,000 -833 Descending FlightAware UK
Fri 08:23:27 AM 49.0350 1.0610 273° West 20,700 1,333 Climbing FlightAware ADS-B
Fri 08:23:28 AM 49.0360 1.0333 273° West 422 486 19,400 -1,680 Descending FlightAware UK
Fri 08:23:52 AM 49.0381 0.9653 273° West 424 488 20,000 1,429 Climbing FlightAware UK
Fri 08:24:10 AM 49.0397 0.9130 273° West 428 493 20,400 5,700 Climbing FlightAware UK
Fri 08:24:12 AM 49.0400 0.9210 273° West 412 474 21,900 1,333 Climbing FlightAware ADS-B
Fri 08:24:28 AM 49.0414 0.8607 273° West 432 497 20,800 -750 Descending FlightAware UK
Fri 08:24:52 AM 49.0433 0.7904 272° West 438 504 21,400 1,429 Climbing FlightAware UK
Fri 08:25:10 AM 49.0450 0.7376 273° West 440 506 21,800 3,000 Climbing FlightAware UK
Fri 08:25:12 AM 49.0440 0.7600 273° West 414 476 22,400 1,500 Climbing FlightAware ADS-B
Fri 08:25:46 AM 49.0479 0.6312 273° West 442 509 22,700 577 Climbing FlightAware UK
Fri 08:26:04 AM 49.0495 0.5778 273° West 448 516 22,900 3,714 Climbing FlightAware UK
Fri 08:26:07 AM 49.0490 0.5830 273° West 421 484 24,000 1,500 Climbing FlightAware ADS-B
Fri 08:26:28 AM 49.0512 0.5060 273° West 452 520 23,500 2,057 Descending FlightAware UK
Fri 08:26:42 AM 49.0520 0.4770 272° West 429 494 25,200 1,000 Climbing FlightAware ADS-B
Fri 08:26:46 AM 49.0525 0.4520 272° West 450 518 23,800 -3,273 Descending FlightAware UK
Fri 08:27:04 AM 49.0554 0.3981 272° West 456 525 24,000 3,000 Climbing FlightAware UK
Fri 08:27:32 AM 49.0650 0.3210 272° West 437 503 26,100 1,000 Climbing FlightAware ADS-B
Fri 08:27:58 AM 49.0735 0.2343 272° West 462 532 24,900 900 Descending FlightAware UK
Fri 08:28:12 AM 49.0760 0.2000 272° West 442 509 26,700 1,143 Climbing FlightAware ADS-B
Fri 08:28:40 AM 49.0844 0.1038 272° West 472 543 25,700 900 Descending FlightAware UK
Fri 08:28:52 AM 49.0850 0.0890 272° West 448 516 27,300 1,000 Climbing FlightAware ADS-B
Fri 08:29:10 AM 49.0918 0.0096 272° West 474 545 26,200 -1,024 Descending FlightAware UK
Fri 08:29:33 AM 49.0975 -0.0653 277° West 478 550 26,600 4,222 Climbing FlightAware UK
Fri 08:29:37 AM 49.0960 -0.0510 277° West 453 521 28,100 1,000 Climbing FlightAware ADS-B
Fri 08:29:57 AM 49.1029 -0.1414 277° West 482 555 27,000 -1,263 Descending FlightAware UK
Fri 08:30:15 AM 49.1066 -0.1989 276° West 484 557 27,300 4,560 Climbing FlightAware UK
Fri 08:30:22 AM 49.1090 -0.2090 276° West 457 526 28,900 750 Climbing FlightAware ADS-B
Fri 08:30:39 AM 49.1123 -0.2752 276° West 484 557 27,600 -1,886 Descending FlightAware UK
Fri 08:30:57 AM 49.1170 -0.3334 277° West 484 557 27,800 4,696 Climbing FlightAware UK
Fri 08:31:02 AM 49.1190 -0.3430 277° West 463 533 29,400 500 Climbing FlightAware ADS-B
Fri 08:31:21 AM 49.1239 -0.4120 277° West 490 564 28,000 -1,784 Descending FlightAware UK
Fri 08:31:39 AM 49.1289 -0.4711 277° West 494 568 28,300 4,385 Climbing FlightAware UK
Fri 08:31:47 AM 49.1320 -0.4910 277° West 469 540 29,900 1,000 Climbing FlightAware ADS-B
Fri 08:32:03 AM 49.1356 -0.5499 277° West 496 571 28,700 1,350 Descending FlightAware UK
Fri 08:32:27 AM 49.1430 -0.6250 277° West 465 535 30,800 2,531 Climbing FlightAware ADS-B
Fri 08:33:07 AM 49.1530 -0.7520 277° West 465 535 31,400 -250 Climbing FlightAware ADS-B
Fri 08:33:39 AM 49.1603 -0.8616 277° West 488 562 30,500 933 Descending FlightAware UK
Fri 08:33:52 AM 49.1650 -0.8980 277° West 467 537 32,100 857 Climbing FlightAware ADS-B
Fri 08:34:21 AM 49.1712 -0.9982 277° West 492 566 31,100 1,029 Descending FlightAware UK
Fri 08:34:27 AM 49.1740 -1.0140 277° West 466 536 32,700 1,000 Climbing FlightAware ADS-B
Fri 08:35:03 AM 49.1819 -1.1352 277° West 494 568 31,800 960 Descending FlightAware UK
Fri 08:35:17 AM 49.1850 -1.1690 277° West 463 533 33,500 833 Climbing FlightAware ADS-B
Fri 08:35:39 AM 49.1908 -1.2515 277° West 494 568 32,300 750 Descending FlightAware UK
Fri 08:35:57 AM 49.1960 -1.3060 277° West 461 531 34,000 333 Climbing FlightAware ADS-B
Fri 08:36:15 AM 49.1997 -1.3679 277° West 488 562 32,500  Descending FlightAware UK
Fri 08:36:37 AM 49.2050 -1.4240 277° West 460 529 34,000  Climbing FlightAware ADS-B
Fri 08:37:14 AM 49.2138 -1.5607 277° West 490 564 32,500  Descending FlightAware UK
Fri 08:37:22 AM 49.2160 -1.5780 277° West 462 532 34,000  Climbing FlightAware ADS-B
Fri 08:37:38 AM 49.2196 -1.6386 277° West 492 566 32,500  Descending FlightAware UK
Fri 08:38:02 AM 49.2250 -1.7090 277° West 461 531 34,000 1,525 Climbing FlightAware ADS-B
Fri 08:38:37 AM 49.2320 -1.8100 276° West 461 531 34,000 -1,455 Level FlightAware ADS-B
Fri 08:39:08 AM 49.2406 -1.9300 276° West 488 562 32,400 -1,959 Descending FlightAware UK
Fri 08:39:26 AM 49.2447 -1.9883 276° West 488 562 32,400 5,053 Level FlightAware UK
Fri 08:39:27 AM 49.2430 -1.9660 276° West 460 529 34,000  Climbing FlightAware ADS-B
Fri 08:39:56 AM 49.2515 -2.0849 276° West 488 562 32,400 -1,698 Descending FlightAware UK
Fri 08:40:20 AM 49.2560 -2.1626 275° West 488 562 32,500 3,097 Climbing FlightAware UK
Fri 08:40:27 AM 49.2570 -2.1670 275° West 462 532 34,000  Climbing FlightAware ADS-B
Fri 08:40:50 AM 49.2621 -2.2588 275° West 488 562 32,500  Descending FlightAware UK
Fri 08:41:02 AM 49.2650 -2.2820 275° West 464 534 34,000 1,452 Climbing FlightAware ADS-B
Fri 08:41:52 AM 49.2750 -2.4450 275° West 462 532 34,000  Level FlightAware ADS-B
Fri 08:42:32 AM 49.2840 -2.5750 276° West 464 534 34,000 -1,552 Level FlightAware ADS-B
Fri 08:42:50 AM 49.2876 -2.6500 276° West 490 564 32,500  Descending FlightAware UK
Fri 08:43:02 AM 49.2900 -2.6710 276° West 463 533 34,000  Climbing FlightAware ADS-B
Fri 08:43:55 AM 49.3012 -2.8645 276° West 490 564 32,500 -1,268 Descending FlightAware UK
Fri 08:44:13 AM 49.3048 -2.9232 275° West 490 564 32,500 3,333 Level FlightAware UK
Fri 08:44:22 AM 49.3060 -2.9340 275° West 462 532 34,000 -125 Climbing FlightAware ADS-B
Fri 08:45:01 AM 49.3142 -3.0786 275° West 488 562 32,400  Descending FlightAware UK
Fri 08:45:07 AM 49.3150 -3.0850 275° West 461 531 34,000 200 Climbing FlightAware ADS-B
Fri 08:45:31 AM 49.3201 -3.1761 275° West 488 562 32,500  Descending FlightAware UK
Fri 08:45:47 AM 49.3220 -3.2140 275° West 462 532 34,000 -143 Climbing FlightAware ADS-B
Fri 08:46:13 AM 49.3278 -3.3122 275° West 488 562 32,400  Descending FlightAware UK
Fri 08:46:32 AM 49.3310 -3.3620 275° West 464 534 34,000  Climbing FlightAware ADS-B
Fri 08:46:49 AM 49.3343 -3.4297 275° West 488 562 32,400  Descending FlightAware UK
Fri 08:47:12 AM 49.3380 -3.4910 275° West 463 533 34,000 125 Climbing FlightAware ADS-B
Fri 08:47:37 AM 49.3432 -3.5857 275° West 490 564 32,500  Descending FlightAware UK
Fri 08:47:57 AM 49.3460 -3.6360 275° West 459 528 34,000  Climbing FlightAware ADS-B
Fri 08:48:25 AM 49.3516 -3.7415 275° West 490 564 32,500  Descending FlightAware UK
Fri 08:48:32 AM 49.3520 -3.7510 275° West 459 528 34,000  Climbing FlightAware ADS-B
Fri 08:48:49 AM 49.3558 -3.8191 275° West 492 566 32,500 -2,195 Descending FlightAware UK
Fri 08:49:13 AM 49.3598 -3.8961 275° West 488 562 32,500 3,214 Level FlightAware UK
Fri 08:49:17 AM 49.3600 -3.8940 275° West 449 517 34,000 1,837 Climbing FlightAware ADS-B
Fri 08:50:02 AM 49.3670 -4.0370 274° West 447 514 34,000 -1,324 Level FlightAware ADS-B
Fri 08:50:25 AM 49.3714 -4.1219 274° West 486 559 32,500  Descending FlightAware UK
Fri 08:50:42 AM 49.3740 -4.1630 274° West 447 514 34,000  Climbing FlightAware ADS-B
Fri 08:51:07 AM 49.3779 -4.2541 274° West 482 555 32,500  Descending FlightAware UK
Fri 08:51:22 AM 49.3800 -4.2900 274° West 447 514 34,000  Climbing FlightAware ADS-B
Fri 08:51:37 AM 49.3823 -4.3487 274° West 482 555 32,500 -2,727 Descending FlightAware UK
Fri 08:51:55 AM 49.3849 -4.4055 274° West 482 555 32,500 3,000 Level FlightAware UK
Fri 08:52:07 AM 49.3870 -4.4310 274° West 450 518 34,000  Climbing FlightAware ADS-B
Fri 08:52:25 AM 49.3894 -4.5007 274° West 482 555 32,500 -2,571 Descending FlightAware UK
Fri 08:52:42 AM 49.3921 -4.5574 274° West 482 555 32,500 4,091 Level FlightAware UK
Fri 08:52:47 AM 49.3930 -4.5580 274° West 451 519 34,000  Climbing FlightAware ADS-B
Fri 08:53:12 AM 49.3966 -4.6530 274° West 480 552 32,500  Descending FlightAware UK
Fri 08:53:27 AM 49.3980 -4.6870 274° West 453 521 34,000  Climbing FlightAware ADS-B
Fri 08:53:42 AM 49.4008 -4.7491 274° West 484 557 32,500 -2,727 Descending FlightAware UK
Fri 08:54:00 AM 49.4034 -4.8068 274° West 480 552 32,500 3,000 Level FlightAware UK
Fri 08:54:12 AM 49.4050 -4.8350 274° West 456 525 34,000  Climbing FlightAware ADS-B
Fri 08:54:30 AM 49.4076 -4.9036 274° West 480 552 32,500 -2,500 Descending FlightAware UK
Fri 08:54:48 AM 49.4101 -4.9620 274° West 482 555 32,500 4,091 Level FlightAware UK
Fri 08:54:52 AM 49.4110 -4.9660 274° West 459 528 34,000  Climbing FlightAware ADS-B
Fri 08:55:12 AM 49.4135 -5.0401 274° West 484 557 32,500 -2,368 Descending FlightAware UK
Fri 08:55:30 AM 49.4160 -5.0982 274° West 484 557 32,500 3,600 Level FlightAware UK
Fri 08:55:37 AM 49.4170 -5.1160 274° West 460 529 34,000  Climbing FlightAware ADS-B
Fri 08:55:54 AM 49.4192 -5.1764 274° West 482 555 32,500  Descending FlightAware UK
Fri 08:56:17 AM 49.4220 -5.2420 274° West 459 528 34,000  Climbing FlightAware ADS-B
Fri 08:56:36 AM 49.4245 -5.3131 274° West 484 557 32,500 -2,432 Descending FlightAware UK
Fri 08:56:54 AM 49.4267 -5.3715 273° West 484 557 32,500 4,286 Level FlightAware UK
Fri 08:56:57 AM 49.4270 -5.3720 273° West 457 526 34,000  Climbing FlightAware ADS-B
Fri 08:57:12 AM 49.4289 -5.4297 273° West 482 555 32,500 -2,727 Descending FlightAware UK
Fri 08:57:30 AM 49.4311 -5.4880 273° West 484 557 32,500 3,000 Level FlightAware UK
Fri 08:57:42 AM 49.4330 -5.5220 273° West 457 526 34,000  Climbing FlightAware ADS-B
Fri 08:58:00 AM 49.4348 -5.5849 273° West 486 559 32,500 -2,500 Descending FlightAware UK
Fri 08:58:18 AM 49.4371 -5.6430 274° West 488 562 32,500 4,091 Level FlightAware UK
Fri 08:58:22 AM 49.4380 -5.6450 274° West 453 521 34,000  Climbing FlightAware ADS-B
Fri 08:58:42 AM 49.4399 -5.7200 274° West 484 557 32,500 -2,368 Descending FlightAware UK
Fri 08:59:00 AM 49.4417 -5.7770 273° West 482 555 32,500 3,600 Level FlightAware UK
Fri 08:59:07 AM 49.4430 -5.7890 273° West 450 518 34,000  Climbing FlightAware ADS-B
Fri 08:59:24 AM 49.4444 -5.8531 273° West 478 550 32,500 -2,571 Descending FlightAware UK
Fri 08:59:42 AM 49.4465 -5.9098 273° West 478 550 32,500 3,913 Level FlightAware UK
Fri 08:59:47 AM 49.4470 -5.9210 273° West 451 519 34,000  Climbing FlightAware ADS-B
Fri 09:00:06 AM 49.4491 -5.9865 273° West 482 555 32,500 -2,432 Descending FlightAware UK
Fri 09:00:24 AM 49.4507 -6.0442 272° West 482 555 32,500 3,462 Level FlightAware UK
Fri 09:00:32 AM 49.4500 -6.0660 272° West 455 524 34,000  Climbing FlightAware ADS-B
Fri 09:00:48 AM 49.4499 -6.1220 272° West 478 550 32,500 -2,647 Descending FlightAware UK
Fri 09:01:06 AM 49.4495 -6.1802 269° West 478 550 32,500 3,750 Level FlightAware UK
Fri 09:01:12 AM 49.4500 -6.1880 269° West 458 527 34,000  Climbing FlightAware ADS-B
Fri 09:01:30 AM 49.4493 -6.2582 269° West 480 552 32,500 -2,500 Descending FlightAware UK
Fri 09:01:48 AM 49.4489 -6.3170 269° West 482 555 32,500 4,091 Level FlightAware UK
Fri 09:01:52 AM 49.4490 -6.3180 269° West 461 531 34,000  Climbing FlightAware ADS-B
Fri 09:02:12 AM 49.4475 -6.3954 269° West 484 557 32,500 -2,368 Descending FlightAware UK
Fri 09:02:30 AM 49.4462 -6.4541 268° West 482 555 32,500 3,600 Level FlightAware UK
Fri 09:02:37 AM 49.4460 -6.4700 268° West 460 529 34,000  Climbing FlightAware ADS-B
Fri 09:02:54 AM 49.4446 -6.5325 268° West 484 557 32,500 -2,571 Descending FlightAware UK
Fri 09:03:12 AM 49.4436 -6.5912 268° West 486 559 32,500 3,913 Level FlightAware UK
Fri 09:03:17 AM 49.4440 -6.6000 268° West 458 527 34,000  Climbing FlightAware ADS-B
Fri 09:03:36 AM 49.4424 -6.6692 268° West 484 557 32,500 -2,432 Descending FlightAware UK
Fri 09:03:54 AM 49.4414 -6.7276 269° West 482 555 32,500 4,286 Level FlightAware UK
Fri 09:03:57 AM 49.4420 -6.7240 269° West 455 524 34,000  Climbing FlightAware ADS-B
Fri 09:04:12 AM 49.4404 -6.7858 269° West 480 552 32,500 -2,727 Descending FlightAware UK
Fri 09:04:30 AM 49.4395 -6.8436 269° West 480 552 32,500 3,000 Level FlightAware UK
Fri 09:04:42 AM 49.4400 -6.8670 269° West 458 527 34,000  Climbing FlightAware ADS-B
Fri 09:05:00 AM 49.4380 -6.9402 269° West 482 555 32,500 -2,500 Descending FlightAware UK
Fri 09:05:18 AM 49.4370 -6.9977 268° West 484 557 32,500 4,091 Level FlightAware UK
Fri 09:05:22 AM 49.4370 -6.9980 268° West 458 527 34,000  Climbing FlightAware ADS-B
Fri 09:05:42 AM 49.4354 -7.0754 268° West 482 555 32,500 -2,368 Descending FlightAware UK
Fri 09:06:00 AM 49.4342 -7.1337 268° West 482 555 32,500 3,600 Level FlightAware UK
Fri 09:06:07 AM 49.4340 -7.1400 268° West 456 525 34,000  Climbing FlightAware ADS-B
Fri 09:06:24 AM 49.4326 -7.2113 268° West 482 555 32,500 -2,571 Descending FlightAware UK
Fri 09:06:42 AM 49.4314 -7.2694 268° West 482 555 32,500 3,913 Level FlightAware UK
Fri 09:06:47 AM 49.4320 -7.2780 268° West 456 525 34,000  Climbing FlightAware ADS-B
Fri 09:07:06 AM 49.4296 -7.3470 268° West 482 555 32,500 -2,432 Descending FlightAware UK
Fri 09:07:24 AM 49.4282 -7.4050 268° West 482 555 32,500 4,286 Level FlightAware UK
Fri 09:07:27 AM 49.4290 -7.4040 268° West 455 524 34,000  Climbing FlightAware ADS-B
Fri 09:07:42 AM 49.4267 -7.4630 268° West 480 552 32,500 -2,727 Descending FlightAware UK
Fri 09:08:00 AM 49.4253 -7.5209 268° West 480 552 32,500 3,000 Level FlightAware UK
Fri 09:08:12 AM 49.4250 -7.5460 268° West 454 522 34,000  Climbing FlightAware ADS-B
Fri 09:08:30 AM 49.4228 -7.6172 268° West 476 548 32,500 -2,500 Descending FlightAware UK
Fri 09:08:48 AM 49.4214 -7.6751 268° West 478 550 32,500 4,091 Level FlightAware UK
Fri 09:08:52 AM 49.4220 -7.6770 268° West 459 528 34,000  Climbing FlightAware ADS-B
Fri 09:09:12 AM 49.4197 -7.7527 268° West 484 557 32,500 -2,368 Descending FlightAware UK
Fri 09:09:30 AM 49.4182 -7.8111 268° West 482 555 32,500 3,600 Level FlightAware UK
Fri 09:09:37 AM 49.4180 -7.8240 268° West 458 527 34,000  Climbing FlightAware ADS-B
Fri 09:09:54 AM 49.4160 -7.8890 268° West 482 555 32,500 -2,571 Descending FlightAware UK
Fri 09:10:12 AM 49.4144 -7.9474 268° West 482 555 32,500 3,913 Level FlightAware UK
Fri 09:10:17 AM 49.4150 -7.9470 268° West 457 526 34,000  Climbing FlightAware ADS-B
Fri 09:10:36 AM 49.4121 -8.0251 268° West 480 552 32,500 -2,432 Descending FlightAware UK
Fri 09:10:54 AM 49.4104 -8.0827 267° West 478 550 32,500 3,462 Level FlightAware UK
Fri 09:11:02 AM 49.4100 -8.0990 267° West 457 526 34,000  Climbing FlightAware ADS-B
Fri 09:11:18 AM 49.4081 -8.1602 267° West 484 557 32,500 -2,647 Descending FlightAware UK
Fri 09:11:36 AM 49.4064 -8.2185 267° West 482 555 32,500 3,750 Level FlightAware UK
Fri 09:11:42 AM 49.4060 -8.2340 267° West 456 525 34,000  Climbing FlightAware ADS-B
Fri 09:12:00 AM 49.4041 -8.2961 267° West 480 552 32,500 -2,500 Descending FlightAware UK
Fri 09:12:18 AM 49.4022 -8.3542 267° West 480 552 32,500 4,091 Level FlightAware UK
Fri 09:12:22 AM 49.4020 -8.3620 267° West 456 525 34,000  Climbing FlightAware ADS-B
Fri 09:12:42 AM 49.3997 -8.4316 267° West 480 552 32,500 -2,368 Descending FlightAware UK
Fri 09:13:00 AM 49.3978 -8.4897 267° West 480 552 32,500 3,600 Level FlightAware UK
Fri 09:13:07 AM 49.3980 -8.5060 267° West 456 525 34,000  Climbing FlightAware ADS-B
Fri 09:13:24 AM 49.3952 -8.5671 267° West 480 552 32,500 -2,571 Descending FlightAware UK
Fri 09:13:42 AM 49.3933 -8.6252 267° West 480 552 32,500 3,913 Level FlightAware UK
Fri 09:13:47 AM 49.3930 -8.6350 267° West 456 525 34,000  Climbing FlightAware ADS-B
Fri 09:14:06 AM 49.3906 -8.7026 267° West 480 552 32,500 -2,432 Descending FlightAware UK
Fri 09:14:24 AM 49.3887 -8.7607 267° West 482 555 32,500 3,462 Level FlightAware UK
Fri 09:14:32 AM 49.3880 -8.7790 267° West 456 525 34,000  Climbing FlightAware ADS-B
Fri 09:14:48 AM 49.3860 -8.8380 267° West 482 555 32,500  Descending FlightAware UK
Fri 09:15:02 AM 49.3850 -8.8680 267° West 454 522 34,000  Climbing FlightAware ADS-B
Fri 09:15:06 AM 49.3838 -8.8960 267° West 480 552 32,500 -5,625 Descending FlightAware UK
Fri 09:15:18 AM 49.3824 -8.9346 267° West 480 552 32,500  Level FlightAware UK
Fri 09:15:36 AM 49.3803 -8.9923 267° West 480 552 32,500 3,750 Level FlightAware UK
Fri 09:15:42 AM 49.3800 -9.0060 267° West 454 522 34,000 1,475 Climbing FlightAware ADS-B
Fri 09:16:37 AM 49.3730 -9.1730 266° West 455 524 34,000  Level FlightAware ADS-B
Fri 09:17:17 AM 49.3690 -9.3020 267° West 455 524 34,000  Level FlightAware ADS-B
Fri 09:18:02 AM 49.3630 -9.4360 266° West 455 524 34,000  Level FlightAware ADS-B
Fri 09:18:42 AM 49.3580 -9.5460 266° West 455 524 34,000  Level FlightAware ADS-B
Fri 09:19:22 AM 49.3530 -9.6560 266° West 455 524 34,000  Level FlightAware ADS-B
Fri 09:20:02 AM 49.3480 -9.7650 266° West 455 524 34,000  Level FlightAware ADS-B
Fri 09:20:42 AM 49.3430 -9.8750 266° West 455 524 34,000  Level FlightAware ADS-B
Fri 09:21:32 AM 49.3370 -10.0120 266° West 455 524 34,000  Level FlightAware ADS-B
Fri 09:22:12 AM 49.3320 -10.1210 266° West 455 524 34,000  Level FlightAware ADS-B
Fri 09:22:52 AM 49.3270 -10.2310 266° West 455 524 34,000  Level FlightAware ADS-B
Fri 09:23:32 AM 49.3220 -10.3400 266° West 455 524 34,000  Level FlightAware ADS-B
Fri 09:24:12 AM 49.3170 -10.4500 266° West 455 524 34,000  Level FlightAware ADS-B
Fri 09:25:02 AM 49.3100 -10.5870 266° West 455 524 34,000  Level FlightAware ADS-B
Fri 09:25:42 AM 49.3050 -10.6960 266° West 455 524 34,000  Level FlightAware ADS-B
Fri 09:26:12 AM 49.3020 -10.7790 267° West 455 524 34,000  Level FlightAware ADS-B
Fri 09:26:52 AM 49.2970 -10.8880 266° West 455 524 34,000 -21 Level FlightAware ADS-B
Fri 09:29:00 AM 49.3517 -11.2592 283° West  Level Estimated
Fri 09:30:00 AM 49.3769 -11.4335 283° West  Level Estimated
Fri 09:31:00 AM 49.4018 -11.6080 282° West  Level Estimated
Fri 09:32:00 AM 49.4265 -11.7826 282° West  Level Estimated
Fri 09:33:00 AM 49.4509 -11.9575 282° West  Level Estimated
Fri 09:34:00 AM 49.4751 -12.1325 282° West  Level Estimated
Fri 09:35:00 AM 49.4989 -12.3076 282° West  Level Estimated
Fri 09:36:00 AM 49.5226 -12.4830 282° West  Level Estimated
Fri 09:37:00 AM 49.5459 -12.6585 282° West  Level Estimated
Fri 09:38:00 AM 49.5690 -12.8342 282° West  Level Estimated
Fri 09:39:00 AM 49.5918 -13.0100 281° West  Level Estimated
Fri 09:40:00 AM 49.6144 -13.1860 281° West  Level Estimated
Fri 09:41:00 AM 49.6367 -13.3622 281° West  Level Estimated
Fri 09:42:00 AM 49.6587 -13.5385 281° West  Level Estimated
Fri 09:43:00 AM 49.6805 -13.7150 281° West  Level Estimated
Fri 09:44:00 AM 49.7020 -13.8916 281° West  Level Estimated
Fri 09:45:00 AM 49.7232 -14.0684 281° West  Level Estimated
Fri 09:46:00 AM 49.7441 -14.2453 280° West  Level Estimated
Fri 09:47:00 AM 49.7648 -14.4225 280° West  Level Estimated
Fri 09:48:00 AM 49.7852 -14.5997 280° West  Level Estimated
Fri 09:49:00 AM 49.8054 -14.7771 280° West  Level Estimated
Fri 09:50:00 AM 49.8252 -14.9546 280° West  Level Estimated
Fri 09:51:00 AM 49.8448 -15.1323 280° West  Level Estimated
Fri 09:52:00 AM 49.8642 -15.3102 280° West  Level Estimated
Fri 09:53:00 AM 49.8832 -15.4882 280° West  Level Estimated
Fri 09:54:00 AM 49.9020 -15.6663 279° West  Level Estimated
Fri 09:55:00 AM 49.9205 -15.8445 279° West  Level Estimated
Fri 09:56:00 AM 49.9386 -16.0210 279° West  Level Estimated
Fri 09:57:00 AM 49.9563 -16.1977 279° West  Level Estimated
Fri 09:58:00 AM 49.9739 -16.3745 279° West  Level Estimated
Fri 09:59:00 AM 49.9911 -16.5514 279° West  Level Estimated
Fri 10:00:00 AM 50.0081 -16.7284 279° West  Level Estimated
Fri 10:01:00 AM 50.0248 -16.9056 278° West  Level Estimated
Fri 10:02:00 AM 50.0424 -17.0960 278° West  Level Estimated
Fri 10:03:00 AM 50.0597 -17.2865 278° West  Level Estimated
Fri 10:04:00 AM 50.0767 -17.4771 278° West  Level Estimated
Fri 10:05:00 AM 50.0934 -17.6679 278° West  Level Estimated
Fri 10:06:00 AM 50.1098 -17.8588 278° West  Level Estimated
Fri 10:07:00 AM 50.1259 -18.0499 278° West  Level Estimated
Fri 10:08:00 AM 50.1417 -18.2410 277° West  Level Estimated
Fri 10:09:00 AM 50.1571 -18.4323 277° West  Level Estimated
Fri 10:10:00 AM 50.1722 -18.6237 277° West  Level Estimated
Fri 10:11:00 AM 50.1870 -18.8153 277° West  Level Estimated
Fri 10:12:00 AM 50.2015 -19.0069 277° West  Level Estimated
Fri 10:12:56 AM 49.0000 -20.0000 274° West 445 512 33,000  Level ETMS Enhanced Traffic Management System
Fri 10:13:00 AM 50.2157 -19.1987 277° West  Level Estimated
Fri 10:14:00 AM 50.2296 -19.3906 277° West  Level Estimated
Fri 10:15:00 AM 50.2431 -19.5826 276° West  Level Estimated
Fri 10:16:00 AM 50.2564 -19.7747 276° West  Level Estimated
Fri 10:17:00 AM 50.2693 -19.9669 276° West  Level Estimated
Fri 10:18:00 AM 50.2819 -20.1592 276° West  Level Estimated
Fri 10:19:00 AM 49.0495 -21.3183 273° West 445 512 33,000  Level FlightAware Transoceanic
Fri 10:20:00 AM 49.0554 -21.5068 273° West 445 512 33,000  Level FlightAware Transoceanic
Fri 10:21:00 AM 49.0609 -21.6954 272° West 445 512 33,000  Level FlightAware Transoceanic
Fri 10:22:00 AM 49.0662 -21.8840 272° West 445 512 33,000  Level FlightAware Transoceanic
Fri 10:23:00 AM 49.0711 -22.0727 272° West 445 512 33,000  Level FlightAware Transoceanic
Fri 10:24:00 AM 49.0757 -22.2614 272° West 445 512 33,000  Level FlightAware Transoceanic
Fri 10:25:00 AM 49.0800 -22.4501 272° West 445 512 33,000  Level FlightAware Transoceanic
Fri 10:26:00 AM 49.0840 -22.6388 272° West 445 512 33,000  Level FlightAware Transoceanic
Fri 10:27:00 AM 49.0877 -22.8276 272° West 445 512 33,000  Level FlightAware Transoceanic
Fri 10:28:00 AM 49.0911 -23.0164 271° West 445 512 33,000  Level FlightAware Transoceanic
Fri 10:29:00 AM 49.0942 -23.2053 271° West 445 512 33,000  Level FlightAware Transoceanic
Fri 10:30:00 AM 49.0970 -23.3941 271° West 445 512 33,000  Level FlightAware Transoceanic
Fri 10:31:00 AM 49.0995 -23.5830 271° West 445 512 33,000  Level FlightAware Transoceanic
Fri 10:32:00 AM 49.1016 -23.7719 271° West 445 512 33,000  Level FlightAware Transoceanic
Fri 10:33:00 AM 49.1035 -23.9608 271° West 445 512 33,000  Level FlightAware Transoceanic
Fri 10:34:00 AM 49.1050 -24.1497 271° West 445 512 33,000  Level FlightAware Transoceanic
Fri 10:35:00 AM 49.1062 -24.3387 270° West 445 512 33,000  Level FlightAware Transoceanic
Fri 10:36:00 AM 49.1072 -24.5276 270° West 445 512 33,000  Level FlightAware Transoceanic
Fri 10:37:00 AM 49.1078 -24.7166 270° West 445 512 33,000  Level FlightAware Transoceanic
Fri 10:38:00 AM 49.1081 -24.9055 270° West 445 512 33,000  Level FlightAware Transoceanic
Fri 10:39:00 AM 49.1081 -25.0945 270° West 445 512 33,000  Level FlightAware Transoceanic
Fri 10:40:00 AM 49.1078 -25.2834 270° West 445 512 33,000  Level FlightAware Transoceanic
Fri 10:41:00 AM 49.1072 -25.4724 270° West 445 512 33,000  Level FlightAware Transoceanic
Fri 10:42:00 AM 49.1062 -25.6613 270° West 445 512 33,000  Level FlightAware Transoceanic
Fri 10:43:00 AM 49.1050 -25.8503 269° West 445 512 33,000  Level FlightAware Transoceanic
Fri 10:44:00 AM 49.1035 -26.0392 269° West 445 512 33,000  Level FlightAware Transoceanic
Fri 10:45:00 AM 49.1016 -26.2281 269° West 445 512 33,000  Level FlightAware Transoceanic
Fri 10:46:00 AM 49.0995 -26.4170 269° West 445 512 33,000  Level FlightAware Transoceanic
Fri 10:47:00 AM 49.0970 -26.6059 269° West 445 512 33,000  Level FlightAware Transoceanic
Fri 10:48:00 AM 49.0942 -26.7947 269° West 445 512 33,000  Level FlightAware Transoceanic
Fri 10:49:00 AM 49.0911 -26.9836 269° West 445 512 33,000  Level FlightAware Transoceanic
Fri 10:50:00 AM 49.0877 -27.1724 268° West 445 512 33,000  Level FlightAware Transoceanic
Fri 10:51:00 AM 49.0840 -27.3612 268° West 445 512 33,000  Level FlightAware Transoceanic
Fri 10:52:00 AM 49.0800 -27.5499 268° West 445 512 33,000  Level FlightAware Transoceanic
Fri 10:53:00 AM 49.0757 -27.7386 268° West 445 512 33,000  Level FlightAware Transoceanic
Fri 10:54:00 AM 49.0711 -27.9273 268° West 445 512 33,000  Level FlightAware Transoceanic
Fri 10:55:00 AM 49.0662 -28.1160 268° West 445 512 33,000  Level FlightAware Transoceanic
Fri 10:56:00 AM 49.0609 -28.3046 268° West 445 512 33,000  Level FlightAware Transoceanic
Fri 10:57:00 AM 49.0554 -28.4932 267° West 445 512 33,000  Level FlightAware Transoceanic
Fri 10:58:00 AM 49.0495 -28.6817 267° West 445 512 33,000  Level FlightAware Transoceanic
Fri 10:59:00 AM 49.0434 -28.8702 267° West 445 512 33,000  Level FlightAware Transoceanic
Fri 11:00:00 AM 49.0369 -29.0586 267° West 445 512 33,000  Level FlightAware Transoceanic
Fri 11:01:00 AM 49.0302 -29.2470 267° West 445 512 33,000  Level FlightAware Transoceanic
Fri 11:02:00 AM 49.0231 -29.4353 267° West 445 512 33,000  Level FlightAware Transoceanic
Fri 11:03:00 AM 49.0157 -29.6236 267° West 445 512 33,000  Level FlightAware Transoceanic
Fri 11:04:00 AM 49.0080 -29.8118 266° West 445 512 33,000  Level FlightAware Transoceanic
Fri 11:05:00 AM 49.0000 -29.9998 266° West  Level FlightAware Approximate
Fri 11:06:00 AM 48.9913 -30.1876 266° West  Level FlightAware Approximate
Fri 11:07:00 AM 48.9884 -30.1870 265° West  Level FlightAware Approximate
Fri 11:08:00 AM 48.9765 -30.3744 265° West  Level FlightAware Approximate
Fri 11:09:00 AM 48.9642 -30.5617 264° West  Level FlightAware Approximate
Fri 11:10:00 AM 48.9517 -30.7488 264° West  Level FlightAware Approximate
Fri 11:11:00 AM 48.9389 -30.9359 264° West  Level FlightAware Approximate
Fri 11:12:00 AM 48.9257 -31.1229 264° West  Level FlightAware Approximate
Fri 11:13:00 AM 48.9123 -31.3098 264° West  Level FlightAware Approximate
Fri 11:14:00 AM 48.8986 -31.4966 264° West  Level FlightAware Approximate
Fri 11:15:00 AM 48.8845 -31.6833 264° West  Level FlightAware Approximate
Fri 11:16:00 AM 48.8702 -31.8699 263° West  Level FlightAware Approximate
Fri 11:17:00 AM 48.8555 -32.0564 263° West  Level FlightAware Approximate
Fri 11:18:00 AM 48.8406 -32.2427 263° West  Level FlightAware Approximate
Fri 11:19:00 AM 48.8253 -32.4290 263° West  Level FlightAware Approximate
Fri 11:20:00 AM 48.8104 -32.6153 263° West  Level FlightAware Approximate
Fri 11:21:00 AM 48.7961 -32.8016 263° West  Level FlightAware Approximate
Fri 11:22:00 AM 48.7814 -32.9878 263° West  Level FlightAware Approximate
Fri 11:23:00 AM 48.7664 -33.1739 263° West  Level FlightAware Approximate
Fri 11:24:00 AM 48.7512 -33.3598 263° West  Level FlightAware Approximate
Fri 11:25:00 AM 48.7356 -33.5457 263° West  Level FlightAware Approximate
Fri 11:26:00 AM 48.7197 -33.7314 263° West  Level FlightAware Approximate
Fri 11:27:00 AM 48.7035 -33.9170 263° West  Level FlightAware Approximate
Fri 11:28:00 AM 48.6871 -34.1026 262° West  Level FlightAware Approximate
Fri 11:29:00 AM 48.6703 -34.2879 262° West  Level FlightAware Approximate
Fri 11:30:00 AM 48.6533 -34.4732 262° West  Level FlightAware Approximate
Fri 11:31:00 AM 48.6359 -34.6583 262° West  Level FlightAware Approximate
Fri 11:32:00 AM 48.6182 -34.8433 262° West  Level FlightAware Approximate
Fri 11:33:00 AM 48.6003 -35.0282 262° West  Level FlightAware Approximate
Fri 11:34:00 AM 48.5820 -35.2129 262° West  Level FlightAware Approximate
Fri 11:35:00 AM 48.5635 -35.3975 261° West  Level FlightAware Approximate
Fri 11:36:00 AM 48.5447 -35.5820 261° West  Level FlightAware Approximate
Fri 11:37:00 AM 48.5255 -35.7663 261° West  Level FlightAware Approximate
Fri 11:38:00 AM 48.5061 -35.9505 261° West  Level FlightAware Approximate
Fri 11:39:00 AM 48.4864 -36.1346 261° West  Level FlightAware Approximate
Fri 11:40:00 AM 48.4664 -36.3185 261° West  Level FlightAware Approximate
Fri 11:41:00 AM 48.4460 -36.5022 261° West  Level FlightAware Approximate
Fri 11:42:00 AM 48.4254 -36.6858 260° West  Level FlightAware Approximate
Fri 11:43:00 AM 48.4046 -36.8693 260° West  Level FlightAware Approximate
Fri 11:44:00 AM 48.3834 -37.0526 260° West  Level FlightAware Approximate
Fri 11:45:00 AM 48.3619 -37.2358 260° West  Level FlightAware Approximate
Fri 11:46:00 AM 48.3401 -37.4188 260° West  Level FlightAware Approximate
Fri 11:47:00 AM 48.3181 -37.6016 260° West  Level FlightAware Approximate
Fri 11:48:00 AM 48.2958 -37.7843 260° West  Level FlightAware Approximate
Fri 11:49:00 AM 48.2731 -37.9668 260° West  Level FlightAware Approximate
Fri 11:50:00 AM 48.2502 -38.1492 259° West  Level FlightAware Approximate
Fri 11:51:00 AM 48.2270 -38.3314 259° West  Level FlightAware Approximate
Fri 11:52:00 AM 48.2035 -38.5134 259° West  Level FlightAware Approximate
Fri 11:53:00 AM 48.1797 -38.6953 259° West  Level FlightAware Approximate
Fri 11:54:00 AM 48.1557 -38.8770 259° West  Level FlightAware Approximate
Fri 11:55:00 AM 48.1313 -39.0585 259° West  Level FlightAware Approximate
Fri 11:56:00 AM 48.1067 -39.2398 259° West  Level FlightAware Approximate
Fri 11:57:00 AM 48.0817 -39.4210 258° West  Level FlightAware Approximate
Fri 11:58:00 AM 48.0565 -39.6020 258° West  Level FlightAware Approximate
Fri 11:59:00 AM 48.0310 -39.7828 258° West  Level FlightAware Approximate
Fri 12:00:00 PM 48.0052 -39.9635 258° West  Level FlightAware Approximate
Fri 12:01:00 PM 47.9660 -40.1382 250° West  Level FlightAware Approximate
Fri 12:02:00 PM 47.9231 -40.3111 250° West  Level FlightAware Approximate
Fri 12:03:00 PM 47.8800 -40.4838 250° West  Level FlightAware Approximate
Fri 12:04:00 PM 47.8366 -40.6562 249° West  Level FlightAware Approximate
Fri 12:05:00 PM 47.7929 -40.8284 249° West  Level FlightAware Approximate
Fri 12:06:00 PM 47.7490 -41.0002 249° West  Level FlightAware Approximate
Fri 12:07:00 PM 47.7048 -41.1717 249° West  Level FlightAware Approximate
Fri 12:08:00 PM 47.6604 -41.3429 249° West  Level FlightAware Approximate
Fri 12:09:00 PM 47.6157 -41.5139 249° West  Level FlightAware Approximate
Fri 12:10:00 PM 47.5708 -41.6845 249° West  Level FlightAware Approximate
Fri 12:11:00 PM 47.5256 -41.8549 249° West  Level FlightAware Approximate
Fri 12:12:00 PM 47.4801 -42.0250 248° West  Level FlightAware Approximate
Fri 12:13:00 PM 47.4344 -42.1947 248° West  Level FlightAware Approximate
Fri 12:14:00 PM 47.3885 -42.3642 248° West  Level FlightAware Approximate
Fri 12:15:00 PM 47.3423 -42.5334 248° West  Level FlightAware Approximate
Fri 12:16:00 PM 47.2959 -42.7023 248° West  Level FlightAware Approximate
Fri 12:17:00 PM 47.2492 -42.8709 248° West  Level FlightAware Approximate
Fri 12:18:00 PM 47.2023 -43.0392 248° West  Level FlightAware Approximate
Fri 12:19:00 PM 47.1551 -43.2071 248° West  Level FlightAware Approximate
Fri 12:20:00 PM 47.1077 -43.3748 247° West  Level FlightAware Approximate
Fri 12:21:00 PM 47.0600 -43.5422 247° West  Level FlightAware Approximate
Fri 12:22:00 PM 47.0121 -43.7093 247° West  Level FlightAware Approximate
Fri 12:23:00 PM 46.9640 -43.8761 248° West  Level FlightAware Approximate
Fri 12:24:00 PM 46.9167 -44.0433 248° West  Level FlightAware Approximate
Fri 12:25:00 PM 46.8691 -44.2101 247° West  Level FlightAware Approximate
Fri 12:26:00 PM 46.8213 -44.3767 247° West  Level FlightAware Approximate
Fri 12:27:00 PM 46.7733 -44.5430 247° West  Level FlightAware Approximate
Fri 12:28:00 PM 46.7250 -44.7089 247° West  Level FlightAware Approximate
Fri 12:29:00 PM 46.6764 -44.8746 247° West  Level FlightAware Approximate
Fri 12:30:00 PM 46.6277 -45.0400 247° West  Level FlightAware Approximate
Fri 12:31:00 PM 46.5783 -45.2048 246° West  Level FlightAware Approximate
Fri 12:32:00 PM 46.5282 -45.3690 246° West  Level FlightAware Approximate
Fri 12:33:00 PM 46.4778 -45.5329 246° West  Level FlightAware Approximate
Fri 12:34:00 PM 46.4273 -45.6965 246° West  Level FlightAware Approximate
Fri 12:35:00 PM 46.3764 -45.8599 246° West  Level FlightAware Approximate
Fri 12:36:00 PM 46.3254 -46.0229 246° West  Level FlightAware Approximate
Fri 12:37:00 PM 46.2741 -46.1856 246° West  Level FlightAware Approximate
Fri 12:38:00 PM 46.2226 -46.3479 245° Southwest  Level FlightAware Approximate
Fri 12:39:00 PM 46.1711 -46.5102 245° Southwest  Level FlightAware Approximate
Fri 12:40:00 PM 46.1194 -46.6721 245° Southwest  Level FlightAware Approximate
Fri 12:41:00 PM 46.0674 -46.8338 245° Southwest  Level FlightAware Approximate
Fri 12:42:00 PM 46.0152 -46.9951 245° Southwest  Level FlightAware Approximate
Fri 12:43:00 PM 45.9628 -47.1561 245° Southwest  Level FlightAware Approximate
Fri 12:44:00 PM 45.9102 -47.3168 245° Southwest  Level FlightAware Approximate
Fri 12:45:00 PM 45.8573 -47.4772 245° Southwest  Level FlightAware Approximate
Fri 12:46:00 PM 45.8045 -47.6375 245° Southwest  Level FlightAware Approximate
Fri 12:47:00 PM 45.7521 -47.7979 245° Southwest  Level FlightAware Approximate
Fri 12:48:00 PM 45.6995 -47.9581 245° Southwest  Level FlightAware Approximate
Fri 12:49:00 PM 45.6467 -48.1179 245° Southwest  Level FlightAware Approximate
Fri 12:50:00 PM 45.5936 -48.2774 245° Southwest  Level FlightAware Approximate
Fri 12:51:00 PM 45.5403 -48.4367 245° Southwest  Level FlightAware Approximate
Fri 12:52:00 PM 45.4869 -48.5956 244° Southwest  Level FlightAware Approximate
Fri 12:53:00 PM 45.4331 -48.7542 244° Southwest  Level FlightAware Approximate
Fri 12:54:00 PM 45.3792 -48.9125 244° Southwest  Level FlightAware Approximate
Fri 12:55:00 PM 45.3251 -49.0705 244° Southwest  Level FlightAware Approximate
Fri 12:56:00 PM 45.2707 -49.2283 244° Southwest  Level FlightAware Approximate
Fri 12:57:00 PM 45.2161 -49.3857 244° Southwest  Level FlightAware Approximate
Fri 12:58:00 PM 45.1613 -49.5428 244° Southwest  Level FlightAware Approximate
Fri 12:59:00 PM 45.1063 -49.6996 244° Southwest  Level FlightAware Approximate
Fri 01:00:00 PM 45.0511 -49.8561 244° Southwest  Level FlightAware Approximate
Fri 01:01:00 PM 44.9991 -50.0137 265° West  Level FlightAware Approximate
Fri 01:02:00 PM 44.9874 -50.1877 265° West  Level FlightAware Approximate
Fri 01:02:24 PM 44.9833 -50.1333 258° West 460 529 33,000  Level Gander Center
Fri 01:03:00 PM 44.9755 -50.3615 265° West  Level FlightAware Approximate
Fri 01:03:24 PM 44.9667 -50.3000 262° West 440 506 33,000  Level Gander Center
Fri 01:04:00 PM 44.9651 -50.5241 265° West  Level FlightAware Approximate
Fri 01:04:24 PM 44.9667 -50.4667 270° West 440 506 33,000  Level Gander Center
Fri 01:05:00 PM 44.9545 -50.6866 265° West  Level FlightAware Approximate
Fri 01:05:24 PM 44.9500 -50.6667 263° West 440 506 33,000  Level Gander Center
Fri 01:06:00 PM 44.9436 -50.8491 265° West  Level FlightAware Approximate
Fri 01:06:24 PM 44.9333 -50.8333 262° West 440 506 33,000  Level Gander Center
Fri 01:07:00 PM 44.9196 -51.0078 258° West  Level Estimated
Fri 01:07:24 PM 44.9333 -51.0000 270° West 440 506 33,800  Level Gander Center
Fri 01:08:24 PM 44.9167 -51.1667 262° West 450 518 35,000 600 Climbing Gander Center
Fri 01:09:24 PM 44.9000 -51.3333 262° West 440 506 35,000  Level Gander Center
Fri 01:10:24 PM 44.9000 -51.5000 270° West 440 506 35,000  Level Gander Center
Fri 01:11:24 PM 44.8833 -51.6667 262° West 440 506 35,000  Level Gander Center
Fri 01:11:45 PM 44.8833 -51.7333 270° West 430 495 35,000  Level Moncton Center
Fri 01:12:45 PM 44.8667 -51.9167 263° West 440 506 35,000  Level Moncton Center
Fri 01:13:35 PM 44.8500 -52.0500 260° West 450 518 35,000  Level Gander Center
Fri 01:14:35 PM 44.8333 -52.2167 262° West 450 518 35,000  Level Gander Center
Fri 01:15:35 PM 44.8167 -52.3833 262° West 450 518 35,000  Level Gander Center
Fri 01:16:24 PM 44.8000 -52.5333 261° West 440 506 35,000  Level Gander Center
Fri 01:17:24 PM 44.7833 -52.7167 263° West 440 506 35,000  Level Gander Center
Fri 01:18:24 PM 44.7833 -52.8833 270° West 440 506 35,000  Level Gander Center
Fri 01:18:45 PM 44.7833 -52.9167 270° West 450 518 35,000  Level Moncton Center
Fri 01:19:45 PM 44.7667 -53.1167 263° West 440 506 35,000  Level Moncton Center
Fri 01:20:35 PM 44.7500 -53.2500 260° West 450 518 35,000  Level Gander Center
Fri 01:21:35 PM 44.7167 -53.4167 254° West 440 506 35,000  Level Gander Center
Fri 01:22:35 PM 44.7167 -53.6000 270° West 440 506 35,000  Level Gander Center
Fri 01:23:24 PM 44.7000 -53.7500 261° West 440 506 35,000  Level Gander Center
Fri 01:24:24 PM 44.6833 -53.9000 261° West 450 518 35,000  Level Gander Center
Fri 01:25:24 PM 44.6667 -54.0833 263° West 440 506 35,000  Level Gander Center
Fri 01:25:45 PM 44.6667 -54.1333 270° West 430 495 35,000  Level Moncton Center
Fri 01:26:45 PM 44.6500 -54.3167 263° West 440 506 35,000  Level Moncton Center
Fri 01:27:24 PM 44.6500 -54.4167 270° West 420 483 35,000  Level Gander Center
Fri 01:28:24 PM 44.6167 -54.5833 254° West 430 495 35,000  Level Gander Center
Fri 01:28:45 PM 44.6167 -54.6333 270° West 420 483 35,000  Level Moncton Center
Fri 01:29:24 PM 44.6167 -54.7500 270° West 440 506 35,000  Level Gander Center
Fri 01:30:24 PM 44.5833 -54.9167 254° West 430 495 35,000  Level Gander Center
Fri 01:30:45 PM 44.5833 -54.9667 270° West 430 495 35,000  Level Moncton Center
Fri 01:31:45 PM 44.5667 -55.1333 262° West 420 483 35,000  Level Moncton Center
Fri 01:32:24 PM 44.5500 -55.2500 259° West 440 506 35,000  Level Gander Center
Fri 01:38:42 PM 44.4410 -56.3190 259° West 440 506 35,000  Level FlightAware ADS-B
Fri 01:39:32 PM 44.4150 -56.4480 254° West 440 506 35,000  Level FlightAware ADS-B
Fri 01:40:12 PM 44.3960 -56.5420 254° West 440 506 35,000  Level FlightAware ADS-B
Fri 01:41:02 PM 44.3660 -56.7020 255° West 436 502 35,000  Level FlightAware ADS-B
Fri 01:41:37 PM 44.3490 -56.7860 254° West 436 502 35,000  Level FlightAware ADS-B
Fri 01:42:17 PM 44.3300 -56.8780 254° West 436 502 35,000  Level FlightAware ADS-B
Fri 01:43:02 PM 44.3040 -57.0160 255° West 437 503 35,000  Level FlightAware ADS-B
Fri 01:43:47 PM 44.2780 -57.1500 255° West 439 505 35,000  Level FlightAware ADS-B
Fri 01:44:22 PM 44.2600 -57.2330 253° West 439 505 35,000  Level FlightAware ADS-B
Fri 01:45:07 PM 44.2350 -57.3600 255° West 438 504 35,000  Level FlightAware ADS-B
Fri 01:45:52 PM 44.2120 -57.4710 254° West 438 504 35,000  Level FlightAware ADS-B
Fri 01:46:32 PM 44.1930 -57.5630 254° West 438 504 35,000  Level FlightAware ADS-B
Fri 01:47:12 PM 44.1740 -57.6560 254° West 438 504 35,000  Level FlightAware ADS-B
Fri 01:48:02 PM 44.1360 -57.8430 254° West 443 510 35,000  Level FlightAware ADS-B
Fri 01:48:42 PM 44.1120 -57.9560 254° West 443 510 35,000  Level FlightAware ADS-B
Fri 01:49:22 PM 44.0900 -58.0620 254° West 441 507 35,000  Level FlightAware ADS-B
Fri 01:50:07 PM 44.0650 -58.1760 253° West 440 506 35,000  Level FlightAware ADS-B
Fri 01:50:47 PM 44.0450 -58.2680 253° West 440 506 35,000  Level FlightAware ADS-B
Fri 01:51:27 PM 44.0180 -58.4020 254° West 436 502 35,000  Level FlightAware ADS-B
Fri 01:52:12 PM 43.9940 -58.5130 253° West 436 502 35,000  Level FlightAware ADS-B
Fri 01:52:52 PM 43.9690 -58.6290 253° West 437 503 35,000  Level FlightAware ADS-B
Fri 01:53:32 PM 43.9480 -58.7250 253° West 438 504 35,000  Level FlightAware ADS-B
Fri 01:54:32 PM 43.9120 -58.8900 253° West 440 506 35,000  Level FlightAware ADS-B
Fri 01:55:12 PM 43.8870 -59.0060 253° West 439 505 35,000  Level FlightAware ADS-B
Fri 01:55:57 PM 43.8600 -59.1260 253° West 439 505 35,000  Level FlightAware ADS-B
Fri 01:56:37 PM 43.8370 -59.2270 253° West 440 506 35,000  Level FlightAware ADS-B
Fri 01:57:17 PM 43.8160 -59.3190 252° West 440 506 35,000  Level FlightAware ADS-B
Fri 01:57:57 PM 43.7940 -59.4100 252° West 440 506 35,000  Level FlightAware ADS-B
Fri 01:58:37 PM 43.7730 -59.5010 252° West 440 506 35,000  Level FlightAware ADS-B
Fri 01:59:27 PM 43.7460 -59.6150 252° West 440 506 35,000  Level FlightAware ADS-B
Fri 02:00:07 PM 43.7250 -59.7060 252° West 440 506 35,000  Level FlightAware ADS-B
Fri 02:00:47 PM 43.7030 -59.7970 252° West 440 506 35,000  Level FlightAware ADS-B
Fri 02:01:27 PM 43.6820 -59.8880 252° West 440 506 35,000  Level FlightAware ADS-B
Fri 02:02:07 PM 43.6610 -59.9790 252° West 440 506 35,000  Level FlightAware ADS-B
Fri 02:02:57 PM 43.6340 -60.0930 252° West 440 506 35,000  Level FlightAware ADS-B
Fri 02:03:37 PM 43.6120 -60.1840 252° West 440 506 35,000  Level FlightAware ADS-B
Fri 02:04:17 PM 43.5910 -60.2750 252° West 440 506 35,000  Level FlightAware ADS-B
Fri 02:05:02 PM 43.5700 -60.3660 252° West 440 506 35,000  Level FlightAware ADS-B
Fri 02:05:47 PM 43.5430 -60.4790 252° West 440 506 35,000  Level FlightAware ADS-B
Fri 02:06:24 PM 43.4667 -60.7833 252° West 450 518 35,000  Level Gander Center
Fri 02:06:45 PM 43.4500 -60.8500 251° West 450 518 35,000  Level Moncton Center
Fri 02:07:45 PM 43.4000 -61.0167 248° West 440 506 35,000  Level Moncton Center
Fri 02:08:45 PM 43.3667 -61.1500 251° West 440 506 35,000  Level Moncton Center
Fri 02:09:45 PM 43.3333 -61.3500 257° West 440 506 35,000  Level Moncton Center
Fri 02:10:45 PM 43.3000 -61.4833 251° West 440 506 35,000  Level Moncton Center
Fri 02:11:45 PM 43.2500 -61.6500 248° West 440 506 35,000  Level Moncton Center
Fri 02:12:45 PM 43.2000 -61.8000 245° Southwest 440 506 35,000  Level Moncton Center
Fri 02:13:45 PM 43.1667 -61.9667 255° West 440 506 35,000  Level Moncton Center
Fri 02:14:45 PM 43.1333 -62.1333 255° West 450 518 35,000  Level Moncton Center
Fri 02:15:45 PM 43.0833 -62.3000 248° West 460 529 35,000  Level Moncton Center
Fri 02:16:45 PM 43.0500 -62.4500 253° West 450 518 35,000  Level Moncton Center
Fri 02:17:45 PM 43.0000 -62.6167 248° West 450 518 35,000  Level Moncton Center
Fri 02:18:45 PM 42.9500 -62.7833 248° West 450 518 35,000  Level Moncton Center
Fri 02:19:45 PM 42.9167 -62.9667 256° West 460 529 35,000  Level Moncton Center
Fri 02:20:45 PM 42.8833 -63.1000 251° West 450 518 35,000  Level Moncton Center
Fri 02:21:45 PM 42.8333 -63.2833 250° West 450 518 35,000  Level Moncton Center
Fri 02:22:45 PM 42.8000 -63.4167 251° West 450 518 35,000  Level Moncton Center
Fri 02:23:45 PM 42.7500 -63.5833 248° West 450 518 35,000  Level Moncton Center
Fri 02:24:45 PM 42.7000 -63.7667 250° West 450 518 35,000  Level Moncton Center
Fri 02:25:45 PM 42.6667 -63.9000 251° West 450 518 35,000  Level Moncton Center
Fri 02:26:45 PM 42.6167 -64.0833 250° West 450 518 35,000  Level Moncton Center
Fri 02:27:45 PM 42.5833 -64.2167 251° West 450 518 35,000  Level Moncton Center
Fri 02:28:45 PM 42.5333 -64.4000 250° West 440 506 35,000  Level Moncton Center
Fri 02:29:45 PM 42.4833 -64.5333 243° Southwest 440 506 35,000  Level Moncton Center
Fri 02:30:45 PM 42.4500 -64.6833 253° West 450 518 35,000  Level Moncton Center
Fri 02:31:45 PM 42.4000 -64.8500 248° West 450 518 35,000  Level Moncton Center
Fri 02:32:45 PM 42.3667 -65.0000 253° West 450 518 35,000  Level Moncton Center
Fri 02:33:45 PM 42.3167 -65.1833 250° West 450 518 35,000  Level Moncton Center
Fri 02:34:45 PM 42.2667 -65.3167 243° Southwest 450 518 35,000  Level Moncton Center
Fri 02:35:45 PM 42.2167 -65.5000 250° West 460 529 35,000  Level Moncton Center
Fri 02:36:45 PM 42.1833 -65.6500 253° West 460 529 35,000  Level Moncton Center
Fri 02:37:45 PM 42.1167 -65.8167 242° Southwest 470 541 35,000  Level Moncton Center
Fri 02:38:45 PM 42.0667 -65.9667 246° West 470 541 35,000  Level Moncton Center
Fri 02:39:45 PM 42.0167 -66.1500 250° West 470 541 35,000  Level Moncton Center
Fri 02:40:45 PM 41.9833 -66.3000 253° West 470 541 35,000 -37 Level Moncton Center
Fri 02:42:27 PM 41.9092 -66.5856 251° West 471 542 34,900 -37 Descending Boston Center
Fri 02:43:27 PM 41.8594 -66.7550 249° West 471 542 34,900 77 Level Boston Center
Fri 02:43:45 PM 41.8167 -66.8000 218° Southwest 470 541 35,000 77 Climbing Moncton Center
Fri 02:44:45 PM 41.7833 -66.9667 255° West 490 564 35,000 -50 Level Moncton Center
Fri 02:45:45 PM 41.7500 -67.1000 252° West 480 552 34,900  Descending Moncton Center
Fri 02:51:12 PM 41.6170 -68.0650 252° West 35,000 11 Climbing FlightAware ADS-B
Fri 02:52:52 PM 41.5720 -68.3390 258° West 35,000  Level FlightAware ADS-B
Fri 02:54:47 PM 41.5180 -68.6660 258° West 470 541 35,000  Level FlightAware ADS-B
Fri 02:55:27 PM 41.4980 -68.7880 258° West 468 539 35,000  Level FlightAware ADS-B
Fri 02:56:07 PM 41.4800 -68.8920 257° West 468 539 35,000  Level FlightAware ADS-B
Fri 02:57:07 PM 41.4530 -69.0490 257° West 466 536 35,000  Level FlightAware ADS-B
Fri 02:57:47 PM 41.4320 -69.1740 257° West 35,000  Level FlightAware ADS-B
Fri 02:58:27 PM 41.4130 -69.2860 257° West 466 536 35,000  Level FlightAware ADS-B
Fri 02:59:12 PM 41.3940 -69.4000 258° West 466 536 35,000  Level FlightAware ADS-B
Fri 02:59:52 PM 41.3700 -69.5290 256° West 465 535 35,000  Level FlightAware ADS-B
Fri 03:00:27 PM 41.3550 -69.6160 257° West 464 534 35,000  Level FlightAware ADS-B
Fri 03:01:17 PM 41.3290 -69.7620 257° West 464 534 35,000  Level FlightAware ADS-B
Fri 03:01:57 PM 41.3100 -69.8720 257° West 463 533 35,000  Level FlightAware ADS-B
Fri 03:02:37 PM 41.2890 -69.9890 257° West 461 531 35,000  Level FlightAware ADS-B
Fri 03:03:22 PM 41.2680 -70.1120 257° West 460 529 35,000  Level FlightAware ADS-B
Fri 03:04:07 PM 41.2520 -70.2310 260° West 463 533 35,000  Level FlightAware ADS-B
Fri 03:05:02 PM 41.2290 -70.3850 259° West 463 533 35,000  Level FlightAware ADS-B
Fri 03:05:47 PM 41.2080 -70.5180 258° West 463 533 35,000  Level FlightAware ADS-B
Fri 03:06:27 PM 41.1910 -70.6290 259° West 462 532 35,000  Level FlightAware ADS-B
Fri 03:07:22 PM 41.1680 -70.7770 258° West 460 529 35,000  Level FlightAware ADS-B
Fri 03:08:07 PM 41.1480 -70.9070 258° West 464 534 35,000  Level FlightAware ADS-B
Fri 03:08:47 PM 41.1310 -71.0150 258° West 462 532 35,000  Level FlightAware ADS-B
Fri 03:09:27 PM 41.1130 -71.1290 258° West 459 528 35,000  Level FlightAware ADS-B
Fri 03:10:12 PM 41.0940 -71.2530 259° West 461 531 35,000  Level FlightAware ADS-B
Fri 03:10:52 PM 41.0742 -71.3749 258° West 462 532 35,000  Level FlightAware ADS-B
Fri 03:11:32 PM 41.0562 -71.4867 258° West 460 529 35,000  Level FlightAware ADS-B
Fri 03:12:08 PM 41.0406 -71.5834 258° West 458 527 35,000  Level FlightAware ADS-B
Fri 03:12:38 PM 41.0269 -71.6674 258° West 458 527 35,000  Level FlightAware ADS-B
Fri 03:13:08 PM 41.0135 -71.7496 258° West 457 526 35,000  Level FlightAware ADS-B
Fri 03:13:42 PM 41.0000 -71.8320 258° West 457 526 35,000  Level FlightAware ADS-B
Fri 03:13:49 PM 40.9952 -71.8607 258° West 457 526 35,000  Level FlightAware ADS-B
Fri 03:14:25 PM 40.9792 -71.9572 258° West 457 526 35,000  Level FlightAware ADS-B
Fri 03:14:55 PM 40.9655 -72.0402 258° West 457 526 35,000  Level FlightAware ADS-B
Fri 03:15:29 PM 40.9499 -72.1329 257° West 456 525 35,000  Level FlightAware ADS-B
Fri 03:16:04 PM 40.9339 -72.2281 257° West 455 524 35,000  Level FlightAware ADS-B
Fri 03:16:21 PM 40.9251 -72.2721 255° West 452 520 35,000  Level FlightAware ADS-B
Fri 03:16:40 PM 40.9066 -72.3204 243° Southwest 448 516 35,000  Level FlightAware ADS-B
Fri 03:16:51 PM 40.8930 -72.3440 233° Southwest 448 516 35,000  Level FlightAware ADS-B
Fri 03:17:01 PM 40.8796 -72.3622 226° Southwest 448 516 35,000  Level FlightAware ADS-B
Fri 03:17:32 PM 40.8313 -72.4194 222° Southwest 449 517 35,000  Level FlightAware ADS-B
Fri 03:18:05 PM 40.7805 -72.4780 221° Southwest 449 517 35,000  Level FlightAware ADS-B
Fri 03:18:35 PM 40.7323 -72.5332 221° Southwest 451 519 35,000  Level FlightAware ADS-B
Fri 03:19:00 PM 40.6959 -72.5826 226° Southwest 451 519 35,000  Level FlightAware ADS-B
Fri 03:19:14 PM 40.6829 -72.6164 243° Southwest 453 521 35,000  Level FlightAware ADS-B
Fri 03:19:45 PM 40.6608 -72.6973 250° West 457 526 35,000  Level FlightAware ADS-B
Fri 03:20:19 PM 40.6395 -72.7860 252° West 457 526 35,000  Level FlightAware ADS-B
Fri 03:20:52 PM 40.6185 -72.8735 252° West 457 526 35,000  Level FlightAware ADS-B
Fri 03:21:25 PM 40.5966 -72.9620 252° West 458 527 35,000  Level FlightAware ADS-B
Fri 03:21:56 PM 40.5767 -73.0419 252° West 458 527 35,000  Level FlightAware ADS-B
Fri 03:22:29 PM 40.5545 -73.1297 252° West 458 527 35,000  Level FlightAware ADS-B
Fri 03:23:00 PM 40.5341 -73.2108 252° West 458 527 35,000 -716 Level FlightAware ADS-B
Fri 03:23:36 PM 40.5099 -73.3063 252° West 457 526 34,200 -882 Descending FlightAware ADS-B
Fri 03:24:08 PM 40.4883 -73.3915 252° West 463 533 34,000 -190 Descending FlightAware ADS-B
Fri 03:24:39 PM 40.4681 -73.4715 252° West 460 529 34,000  Level FlightAware ADS-B
Fri 03:25:09 PM 40.4480 -73.5504 252° West 456 525 34,000  Level FlightAware ADS-B
Fri 03:25:43 PM 40.4248 -73.6412 251° West 452 520 34,000  Level FlightAware ADS-B
Fri 03:26:14 PM 40.4046 -73.7195 251° West 449 517 34,000  Level FlightAware ADS-B
Fri 03:26:45 PM 40.3838 -73.8010 252° West 446 513 34,000  Level FlightAware ADS-B
Fri 03:27:27 PM 40.3580 -73.9020 251° West 446 513 34,000  Level FlightAware ADS-B
Fri 03:27:32 PM 40.3528 -73.9211 250° West 446 513 34,000  Level FlightAware ADS-B
Fri 03:28:11 PM 40.3273 -74.0196 251° West 445 512 34,000  Level FlightAware ADS-B
Fri 03:28:28 PM 40.3158 -74.0616 250° West 444 511 34,000  Level FlightAware ADS-B
Fri 03:28:35 PM 40.3092 -74.0796 244° Southwest 442 509 34,000  Level FlightAware ADS-B
Fri 03:28:49 PM 40.2930 -74.1113 236° Southwest 442 509 34,000  Level FlightAware ADS-B
Fri 03:28:57 PM 40.2825 -74.1273 229° Southwest 442 509 34,000  Level FlightAware ADS-B
Fri 03:29:12 PM 40.2606 -74.1528 222° Southwest 445 512 34,000  Level FlightAware ADS-B
Fri 03:29:47 PM 40.2041 -74.2108 218° Southwest 444 511 34,000  Level FlightAware ADS-B
Fri 03:30:24 PM 40.1433 -74.2721 218° Southwest 443 510 34,000  Level FlightAware ADS-B
Fri 03:30:55 PM 40.0936 -74.3221 218° Southwest 443 510 34,000  Level FlightAware ADS-B
Fri 03:31:38 PM 40.0234 -74.3926 218° Southwest 441 507 34,000  Level FlightAware ADS-B
Fri 03:32:08 PM 39.9746 -74.4418 218° Southwest 440 506 34,000  Level FlightAware ADS-B
Fri 03:32:40 PM 39.9245 -74.4921 218° Southwest 438 504 34,000  Level FlightAware ADS-B
Fri 03:33:10 PM 39.8758 -74.5411 218° Southwest 438 504 34,000  Level FlightAware ADS-B
Fri 03:33:42 PM 39.8248 -74.5922 218° Southwest 441 507 34,000  Level FlightAware ADS-B
Fri 03:34:12 PM 39.7761 -74.6409 218° Southwest 443 510 34,000  Level FlightAware ADS-B
Fri 03:34:48 PM 39.7179 -74.6987 217° Southwest 439 505 34,000  Level FlightAware ADS-B
Fri 03:35:18 PM 39.6687 -74.7477 217° Southwest 441 507 34,000  Level FlightAware ADS-B
Fri 03:35:49 PM 39.6180 -74.7980 217° Southwest 441 507 34,000  Level FlightAware ADS-B
Fri 03:36:21 PM 39.5675 -74.8482 217° Southwest 441 507 34,000  Level FlightAware ADS-B
Fri 03:36:51 PM 39.5178 -74.8972 217° Southwest 439 505 34,000  Level FlightAware ADS-B
Fri 03:37:22 PM 39.4691 -74.9453 217° Southwest 439 505 34,000  Level FlightAware ADS-B
Fri 03:37:53 PM 39.4185 -74.9951 217° Southwest 440 506 34,000  Level FlightAware ADS-B
Fri 03:38:25 PM 39.3674 -75.0455 217° Southwest 441 507 34,000  Level FlightAware ADS-B
Fri 03:39:02 PM 39.3065 -75.1071 218° Southwest 442 509 34,000  Level FlightAware ADS-B
Fri 03:39:33 PM 39.2574 -75.1554 217° Southwest 438 504 34,000  Level FlightAware ADS-B
Fri 03:39:51 PM 39.2211 -75.1669 194° South 441 507 34,000  Level FlightAware ADS-B
Fri 03:39:59 PM 39.2041 -75.1698 188° South 451 519 34,000  Level FlightAware ADS-B
Fri 03:40:15 PM 39.1719 -75.1761 189° South 450 518 34,000  Level FlightAware ADS-B
Fri 03:40:34 PM 39.1329 -75.1868 192° South 450 518 34,000  Level FlightAware ADS-B
Fri 03:41:04 PM 39.0728 -75.2082 195° South 449 517 34,000  Level FlightAware ADS-B
Fri 03:41:34 PM 39.0134 -75.2320 197° South 450 518 34,000  Level FlightAware ADS-B
Fri 03:42:05 PM 38.9522 -75.2575 198° South 447 514 34,000  Level FlightAware ADS-B
Fri 03:42:40 PM 38.8849 -75.2857 198° South 447 514 34,000  Level FlightAware ADS-B
Fri 03:43:14 PM 38.8181 -75.3139 198° South 445 512 34,000  Level FlightAware ADS-B
Fri 03:43:53 PM 38.7421 -75.3457 198° South 445 512 34,000  Level FlightAware ADS-B
Fri 03:44:23 PM 38.6817 -75.3710 198° South 445 512 34,000  Level FlightAware ADS-B
Fri 03:45:14 PM 38.5837 -75.4117 198° South 445 512 34,000  Level FlightAware ADS-B
Fri 03:46:01 PM 38.4905 -75.4504 198° South 448 516 34,000  Level FlightAware ADS-B
Fri 03:46:32 PM 38.4299 -75.4755 198° South 448 516 34,000  Level FlightAware ADS-B
Fri 03:47:02 PM 38.3705 -75.5010 199° South 447 514 34,000  Level FlightAware ADS-B
Fri 03:47:32 PM 38.3240 -75.5320 208° Southwest 436 502 34,000  Level FlightAware ADS-B
Fri 03:47:47 PM 38.2914 -75.5603 214° Southwest 447 514 34,000  Level FlightAware ADS-B
Fri 03:48:02 PM 38.2674 -75.5827 216° Southwest 441 507 34,000  Level FlightAware ADS-B
Fri 03:48:40 PM 38.2053 -75.6420 217° Southwest 441 507 34,000  Level FlightAware ADS-B
Fri 03:49:11 PM 38.1550 -75.6900 217° Southwest 440 506 34,000  Level FlightAware ADS-B
Fri 03:49:42 PM 38.1038 -75.7384 217° Southwest 439 505 34,000  Level FlightAware ADS-B
Fri 03:50:25 PM 38.0340 -75.8037 216° Southwest 440 506 34,000  Level FlightAware ADS-B
Fri 03:50:56 PM 37.9828 -75.8516 216° Southwest 440 506 34,000  Level FlightAware ADS-B
Fri 03:51:29 PM 37.9295 -75.9013 216° Southwest 437 503 34,000  Level FlightAware ADS-B
Fri 03:52:01 PM 37.8762 -75.9508 216° Southwest 437 503 34,000  Level FlightAware ADS-B
Fri 03:52:33 PM 37.8255 -75.9981 216° Southwest 437 503 34,000  Level FlightAware ADS-B
Fri 03:53:37 PM 37.7340 -76.0830 216° Southwest 441 507 34,000  Level FlightAware ADS-B
Fri 03:54:27 PM 37.6490 -76.1620 216° Southwest 441 507 34,000  Level FlightAware ADS-B
Fri 03:54:53 PM 37.5958 -76.2108 216° Southwest 439 505 34,000  Level FlightAware ADS-B
Fri 03:55:27 PM 37.5403 -76.2620 216° Southwest 436 502 34,000  Level FlightAware ADS-B
Fri 03:55:58 PM 37.4893 -76.3091 216° Southwest 436 502 34,000  Level FlightAware ADS-B
Fri 03:56:30 PM 37.4369 -76.3571 216° Southwest 436 502 34,000  Level FlightAware ADS-B
Fri 03:57:01 PM 37.3870 -76.4029 216° Southwest 435 501 34,000  Level FlightAware ADS-B
Fri 03:57:32 PM 37.3510 -76.4360 216° Southwest 434 499 34,000  Level FlightAware ADS-B
Fri 03:57:42 PM 37.3199 -76.4644 216° Southwest 435 501 34,000  Level FlightAware ADS-B
Fri 03:58:47 PM 37.2390 -76.5380 216° Southwest 438 504 34,000  Level FlightAware ADS-B
Fri 03:59:42 PM 37.1350 -76.6330 216° Southwest 437 503 34,000  Level FlightAware ADS-B
Fri 04:00:22 PM 37.0690 -76.6930 216° Southwest 438 504 34,000  Level FlightAware ADS-B
Fri 04:01:12 PM 36.9940 -76.7600 216° Southwest 438 504 34,000  Level FlightAware ADS-B
Fri 04:02:02 PM 36.9250 -76.8240 217° Southwest 438 504 34,000  Level FlightAware ADS-B
Fri 04:02:42 PM 36.8690 -76.8740 216° Southwest 438 504 34,000  Level FlightAware ADS-B
Fri 04:03:22 PM 36.8130 -76.9250 216° Southwest 438 504 34,000  Level FlightAware ADS-B
Fri 04:04:07 PM 36.7060 -77.0340 219° Southwest 34,000  Level FlightAware ADS-B
Fri 04:04:42 PM 36.6680 -77.0980 234° Southwest 437 503 34,000  Level FlightAware ADS-B
Fri 04:05:32 PM 36.6170 -77.1830 233° Southwest 437 503 34,000  Level FlightAware ADS-B
Fri 04:06:12 PM 36.5750 -77.2520 233° Southwest 437 503 34,000  Level FlightAware ADS-B
Fri 04:06:52 PM 36.5340 -77.3200 233° Southwest 437 503 34,000  Level FlightAware ADS-B
Fri 04:07:37 PM 36.4880 -77.4980 252° West 435 501 34,000  Level FlightAware ADS-B
Fri 04:08:17 PM 36.4480 -77.5820 239° Southwest 434 499 34,000  Level FlightAware ADS-B
Fri 04:09:02 PM 36.4000 -77.6850 240° Southwest 437 503 34,000  Level FlightAware ADS-B
Fri 04:09:42 PM 36.3590 -77.7710 239° Southwest 438 504 34,000  Level FlightAware ADS-B
Fri 04:10:27 PM 36.3150 -77.8630 239° Southwest 439 505 34,000  Level FlightAware ADS-B
Fri 04:11:07 PM 36.2740 -77.9510 240° Southwest 433 498 34,000  Level FlightAware ADS-B
Fri 04:11:47 PM 36.2320 -78.0380 239° Southwest 431 496 34,000  Level FlightAware ADS-B
Fri 04:12:32 PM 36.1860 -78.1350 240° Southwest 430 495 34,000  Level FlightAware ADS-B
Fri 04:13:12 PM 36.1460 -78.2190 239° Southwest 427 491 34,000  Level FlightAware ADS-B
Fri 04:13:57 PM 36.1010 -78.3120 239° Southwest 426 490 34,000  Level FlightAware ADS-B
Fri 04:14:37 PM 36.0600 -78.3960 239° Southwest 426 490 34,000  Level FlightAware ADS-B
Fri 04:15:17 PM 36.0200 -78.4800 240° Southwest 430 495 34,000  Level FlightAware ADS-B
Fri 04:16:02 PM 35.9740 -78.5750 239° Southwest 431 496 34,000  Level FlightAware ADS-B
Fri 04:16:42 PM 35.9340 -78.6580 239° Southwest 426 490 34,000  Level FlightAware ADS-B
Fri 04:17:27 PM 35.8870 -78.7530 239° Southwest 425 489 34,000  Level FlightAware ADS-B
Fri 04:18:07 PM 35.8360 -78.8260 229° Southwest 430 495 34,000  Level FlightAware ADS-B
Fri 04:18:47 PM 35.7790 -78.8940 224° Southwest 429 494 34,000  Level FlightAware ADS-B
Fri 04:19:32 PM 35.7150 -78.9670 223° Southwest 428 493 34,000  Level FlightAware ADS-B
Fri 04:20:12 PM 35.6590 -79.0310 223° Southwest 430 495 34,000  Level FlightAware ADS-B
Fri 04:20:52 PM 35.6020 -79.0960 223° Southwest 429 494 34,000  Level FlightAware ADS-B
Fri 04:21:52 PM 35.5130 -79.2010 224° Southwest 425 489 34,000  Level FlightAware ADS-B
Fri 04:22:32 PM 35.4630 -79.2580 223° Southwest 425 489 34,000  Level FlightAware ADS-B
Fri 04:23:12 PM 35.4140 -79.3140 223° Southwest 425 489 34,000  Level FlightAware ADS-B
Fri 04:23:52 PM 35.3650 -79.3700 223° Southwest 425 489 34,000  Level FlightAware ADS-B
Fri 04:24:32 PM 35.3160 -79.4260 223° Southwest 425 489 34,000  Level FlightAware ADS-B
Fri 04:25:22 PM 35.2550 -79.4950 223° Southwest 425 489 34,000  Level FlightAware ADS-B
Fri 04:26:02 PM 35.2060 -79.5510 223° Southwest 425 489 34,000  Level FlightAware ADS-B
Fri 04:26:42 PM 35.1570 -79.6070 223° Southwest 425 489 34,000  Level FlightAware ADS-B
Fri 04:27:22 PM 35.1080 -79.6630 223° Southwest 425 489 34,000  Level FlightAware ADS-B
Fri 04:28:02 PM 35.0590 -79.7190 223° Southwest 425 489 34,000  Level FlightAware ADS-B
Fri 04:28:52 PM 34.9980 -79.7880 223° Southwest 425 489 34,000  Level FlightAware ADS-B
Fri 04:29:32 PM 34.9490 -79.8440 223° Southwest 425 489 34,000  Level FlightAware ADS-B
Fri 04:30:12 PM 34.9000 -79.8990 223° Southwest 425 489 34,000  Level FlightAware ADS-B
Fri 04:30:52 PM 34.8520 -79.9550 224° Southwest 425 489 34,000  Level FlightAware ADS-B
Fri 04:31:42 PM 34.7900 -80.0240 222° Southwest 425 489 34,000 -48 Level FlightAware ADS-B
Fri 04:32:56 PM 34.5625 -80.2806 222° Southwest 429 494 33,900  Descending Jacksonville Center
Fri 04:38:52 PM 34.0840 -80.8910 222° Southwest 417 480 34,000 15 Climbing FlightAware ADS-B
Fri 04:39:32 PM 34.0430 -80.9740 239° Southwest 413 475 34,000  Level FlightAware ADS-B
Fri 04:40:17 PM 33.9990 -81.0640 239° Southwest 414 476 34,000  Level FlightAware ADS-B
Fri 04:40:57 PM 33.9600 -81.1430 239° Southwest 415 478 34,000  Level FlightAware ADS-B
Fri 04:41:42 PM 33.9180 -81.2270 239° Southwest 413 475 34,000  Level FlightAware ADS-B
Fri 04:42:22 PM 33.8770 -81.3100 239° Southwest 412 474 34,000  Level FlightAware ADS-B
Fri 04:43:07 PM 33.8330 -81.3960 238° Southwest 411 473 34,000  Level FlightAware ADS-B
Fri 04:43:47 PM 33.7950 -81.4740 240° Southwest 410 472 34,000  Level FlightAware ADS-B
Fri 04:44:22 PM 33.7610 -81.5400 238° Southwest 413 475 34,000  Level FlightAware ADS-B
Fri 04:45:12 PM 33.7150 -81.6330 239° Southwest 409 471 34,000  Level FlightAware ADS-B
Fri 04:45:52 PM 33.6710 -81.7190 238° Southwest 409 471 34,000  Level FlightAware ADS-B
Fri 04:46:37 PM 33.6340 -81.8090 244° Southwest 414 476 34,000  Level FlightAware ADS-B
Fri 04:47:17 PM 33.6080 -81.8920 249° West 409 471 34,000  Level FlightAware ADS-B
Fri 04:47:57 PM 33.5820 -81.9810 251° West 411 473 34,000 -71 Level FlightAware ADS-B
Fri 04:48:42 PM 33.5530 -82.0780 250° West 412 474 33,900 -776 Descending FlightAware ADS-B
Fri 04:49:22 PM 33.5270 -82.1640 250° West 418 481 32,900 -1,575 Descending FlightAware ADS-B
Fri 04:50:02 PM 33.5020 -82.2490 251° West 428 493 31,800 -1,624 Descending FlightAware ADS-B
Fri 04:50:47 PM 33.4710 -82.3500 250° West 433 498 30,600 -1,482 Descending FlightAware ADS-B
Fri 04:51:27 PM 33.4440 -82.4410 250° West 430 495 29,700 -1,200 Descending FlightAware ADS-B
Fri 04:52:12 PM 33.4140 -82.5400 250° West 403 464 28,900 -1,050 Descending FlightAware ADS-B
Fri 04:52:47 PM 33.3930 -82.6090 250° West 382 440 28,300 -1,271 Descending FlightAware ADS-B
Fri 04:53:37 PM 33.3670 -82.6950 250° West 371 427 27,100 -1,533 Descending FlightAware ADS-B
Fri 04:54:17 PM 33.3420 -82.7750 250° West 352 405 26,000 -1,760 Descending FlightAware ADS-B
Fri 04:54:52 PM 33.3210 -82.8440 250° West 348 400 24,900 -1,976 Descending FlightAware ADS-B
Fri 04:55:42 PM 33.2940 -82.9290 249° West 349 402 23,200 -2,000 Descending FlightAware ADS-B
Fri 04:56:22 PM 33.2720 -83.0090 252° West 345 397 21,900 -1,800 Descending FlightAware ADS-B
Fri 04:57:02 PM 33.2630 -83.0810 262° West 343 395 20,800 -1,835 Descending FlightAware ADS-B
Fri 04:57:47 PM 33.2570 -83.1600 265° West 334 384 19,300 -1,642 Descending FlightAware ADS-B
Fri 04:58:37 PM 33.2510 -83.2510 266° West 328 377 18,200 -1,467 Descending FlightAware ADS-B
Fri 04:59:17 PM 33.2480 -83.3190 267° West 327 376 17,100 -733 Descending FlightAware ADS-B
Fri 05:00:07 PM 33.2450 -83.3960 267° West 327 376 17,100 -2,286 Level FlightAware ADS-B
Fri 05:01:02 PM 33.2370 -83.4980 265° West 327 376 13,100 -3,273 Descending FlightAware ADS-B
Fri 05:01:57 PM 33.2310 -83.5890 266° West 283 326 11,100 -1,326 Descending FlightAware ADS-B
Fri 05:02:37 PM 33.2270 -83.6440 265° West 279 321 11,000 -75 Descending FlightAware ADS-B
Fri 05:03:17 PM 33.2230 -83.6960 265° West 279 321 11,000  Level FlightAware ADS-B
Fri 05:03:42 PM 33.2210 -83.7400 267° West 11,000  Level FlightAware ADS-B
Fri 05:04:05 PM 33.2200 -83.7731 267° West 270 311 11,000 -145 Level Atlanta Center
Fri 05:05:05 PM 33.2514 -83.8500 296° West 242 278 10,800 -700 Descending Atlanta Center
Fri 05:06:05 PM 33.3308 -83.8897 337° Northwest 252 290 9,600 -1,050 Descending Atlanta Center
Fri 05:07:05 PM 33.3975 -83.9294 334° Northwest 267 307 8,700 -800 Descending Atlanta Center
Fri 05:08:05 PM 33.4811 -83.9442 352° North 288 331 8,000 -550 Descending Atlanta Center
Fri 05:09:05 PM 33.5606 -83.9564 353° North 288 331 7,600 -500 Descending Atlanta Center
Fri 05:10:05 PM 33.6147 -83.9964 328° Northwest 265 305 7,000 -350 Descending Atlanta Center
Fri 05:11:05 PM 33.6314 -84.0539 289° West 189 217 6,900 -600 Descending Atlanta Center
Fri 05:12:05 PM 33.6314 -84.1161 270° West 180 207 5,800 -1,016 Descending Atlanta Center
Fri 05:13:09 PM 33.6333 -84.1833 272° West 179 206 4,800 -919 Descending Atlanta TRACON
Fri 05:14:09 PM 33.6333 -84.2500 270° West 174 200 3,900 -950 Descending Atlanta TRACON
Fri 05:15:09 PM 33.6333 -84.3000 270° West 173 199 2,900 -900 Descending Atlanta TRACON
Fri 05:16:09 PM 33.6333 -84.3500 270° West 145 167 2,100 -750 Descending Atlanta TRACON
Fri 05:17:09 PM 33.6333 -84.4000 270° West 133 153 1,400 -700 Descending Atlanta TRACON
Fri 05:19:00 PM 33.6367 -84.4279 270° West  Level Estimated
Fri 05:26:00 PM 33.6367 -84.4279 64° Northeast  Level Estimated

Login

Don't have an account? Register now (free) for customized features, flight alerts, and more!